Dauntless Aviation
Greetings, Guest! To participate, [sign up for a free account] or [log in]
Airports Europe United Kingdom
EGLC
LCY

London City

London, UNITED KINGDOM

Airport Info
Edit

Location

Latitude / Longitude: 51°30'18"N / 0°3'12"E
  51°30.3'N / 0°3.21'E
  51.5050 / 0.0535

Nearby radio navigation aids

LCY CITY NDB on field.

Runway Information

Runway 10 /28

Dimensions: 4948 x 98 ft.
Surface: ASP
 
Runway 10
Runway 28
Latitude: 51.505528 51.504922
Longitude: 0.045753 0.064953
Elevation: 16 ft. 16 ft.
Runway true heading: 91.1 271.1
 

Instrument Procedures

  Aerodrome Chart
  Aircraft Parking/Docking Chart
  Control Zone and Control Area Chart

STARs (Standard Terminal Arrivals)

  STAR LONDON/City via SPEAR (East)
  STAR LONDON/City via ALKIN (South)
  STAR LONDON/City via SPEAR (Northwest)
  STAR LONDON/City via SPEAR (West)
  STAR LONDON/City via SPEAR (Alternate Holding at LOGAN and ALKIN) Chart

IAPs (Instrument Approach Procedures)

  ILS (5.5anddeg; GP) /DME/NDB (L) Rwy 09 (Aircraft Cat A and#44; B and#44; C)
  LOC/DME/NDB (L) Rwy 09 (Aircraft Cat A and#44; B and#44; C)
  Visual Approach Profile LONDON/City Rwy 09 (Aircraft Cat A and#44; B and#44; C)
  LONDON/City ILS (5.5anddeg; GP) /DME/NDB (L) Rwy 27 (Aircraft Cat A and#44; B and#44; C)
  LONDON/City LOC/DME/NDB (L) Rwy 27 (Aircraft Cat A and#44; B and#44; C)
  Visual Approach Profile LONDON/City Rwy 27 (Aircraft Cat A and#44; B and#44; C)
  ATC Surveillance Minimum Altitude Chart
  London City Aerodrome - Textual Data

Departure Procedures

  SID lONDON/City SOUTHAMPTON
  SID LONDON/City DOVER/LYDD
  SID LONDON/City CLACTON
  SID - Instrument (SID) LONDON/City BROOKMANS PARK/COMPTON
Satellite photo at:
Airport distance calculator
From:
Weather Reports

METAR

EGLC

EGLC 181020Z 03009KT 340V060 9999 SCT035 10/M00 Q1021
EGKB
11.4nm S
EGKB 181020Z 36015KT 9999 SCT035 08/M01 Q1021
EGWU
17.8nm W
EGWU 180950Z 03010KT 9999 FEW040 10/M00 Q1021 NOSIG
EGLL
18.9nm SW
EGLL 181020Z 02008KT 330V070 9999 FEW043 11/01 Q1021
EGSS
23.5nm N
EGSS 181020Z 35011KT 9999 SCT026 SCT039 09/02 Q1021
EGKK
23.8nm S
EGKK 180950Z 02009KT 330V060 9999 BKN032 11/02 Q1021

TAF

EGLC
TAF EGLC 180802Z 1809/1818 03010KT 9999 FEW040
EGKB
11.4nm S
TAF EGKB 180848Z 1809/1818 03010KT 9999 FEW030
EGWU
17.8nm W
TAF EGWU 180718Z 1809/1903 03010KT 9999 FEW035
EGLL
18.9nm SW
TAF EGLL 180455Z 1806/1912 03006KT 9999 FEW040
EGSS
23.5nm N
TAF EGSS 180458Z 1806/1912 33008KT 9999 FEW030 BECMG 1810/1813 03010KT
EGKK
23.8nm S
TAF EGKK 180455Z 1806/1912 01008KT 9999 FEW040 PROB30 TEMPO 1909/1912 8000 SHRA
Safelog

 

Dauntless Aviation

© 2007-2014 Dauntless Aviation, all rights reserved
Information provided via PilotNav comes from a variety of official and unofficial data sources. As errors are possible, do not use PilotNav for primary flight planning purposes. Verify any information that you receive via PilotNav with current and canonical charts and other official documents. The material in this database is subject to database copyrights held by Dauntless Aviation and may not be copied without the express permission of Dauntless Aviation - licenses for use of part of all of this data are available for purchase; enquire via the Dauntless Aviation helpdesk. A number of mechanisms and markers exist in the database to protect against and identify infringement / copyright. Automated queries against this website are stictly prohibited, and all activity is logged and analyzed.